createdAt,value
2018-02-13T05:35:12.947Z,82.55
2018-02-13T05:37:41.970Z,82.31
2018-02-13T05:40:11.192Z,82.76
2018-02-13T05:42:41.510Z,82.81
2018-02-13T05:45:10.587Z,82.67
2018-02-13T05:47:39.681Z,81.92
2018-02-13T05:50:11.332Z,82.27
2018-02-13T05:52:40.677Z,82.23
2018-02-13T05:55:10.960Z,82.11
2018-02-13T05:57:41.560Z,82.27
2018-02-13T06:00:11.407Z,82.42
2018-02-13T06:02:40.607Z,82.48
2018-02-13T06:05:10.571Z,82.75
2018-02-13T06:07:40.032Z,83.05
2018-02-13T06:10:09.007Z,82.88
2018-02-13T06:12:38.222Z,82.52
2018-02-13T06:15:08.244Z,82.07
2018-02-13T06:17:37.373Z,82.13
2018-02-13T06:20:07.443Z,82.05
2018-02-13T06:22:36.661Z,81.90
2018-02-13T06:25:06.660Z,81.75
2018-02-13T06:27:35.793Z,81.40
2018-02-13T06:30:04.754Z,80.92
2018-02-13T06:32:33.871Z,81.08
2018-02-13T06:35:05.656Z,80.88
2018-02-13T06:37:36.113Z,79.94
2018-02-13T06:40:07.806Z,79.88
2018-02-13T06:42:36.893Z,79.48
2018-02-13T06:45:06.745Z,79.74
2018-02-13T06:47:36.682Z,80.34
2018-02-13T06:50:05.733Z,80.27
2018-02-13T06:52:34.793Z,78.92
2018-02-13T06:55:06.266Z,79.10
2018-02-13T06:57:35.466Z,79.96
2018-02-13T07:00:04.702Z,79.87
2018-02-13T07:02:35.316Z,80.51
2018-02-13T07:05:04.391Z,79.53
2018-02-13T07:07:33.391Z,78.83
2018-02-13T07:10:04.432Z,79.25
2018-02-13T07:12:34.386Z,78.49
2018-02-13T07:15:03.711Z,78.54
2018-02-13T07:17:35.203Z,78.65
2018-02-13T07:20:04.403Z,79.17
2018-02-13T07:22:33.491Z,78.93
2018-02-13T07:25:03.478Z,77.61
2018-02-13T07:27:33.222Z,77.57
2018-02-13T07:30:02.315Z,77.70
2018-02-13T07:32:33.835Z,77.88
2018-02-13T07:35:02.892Z,78.21
2018-02-13T07:37:32.090Z,77.39
2018-02-13T07:40:01.376Z,77.71
2018-02-13T07:42:30.456Z,75.70
2018-02-13T07:45:00.786Z,75.47
2018-02-13T07:47:31.936Z,75.94
2018-02-13T07:50:02.621Z,75.00
2018-02-13T07:52:31.656Z,74.63
2018-02-13T07:55:01.311Z,74.93
2018-02-13T07:57:30.367Z,74.45
2018-02-13T07:59:59.362Z,73.03
2018-02-13T08:02:28.651Z,74.19
2018-02-13T08:04:57.651Z,75.18
2018-02-13T08:07:26.645Z,75.16
2018-02-13T08:09:55.907Z,73.90
2018-02-13T08:12:24.934Z,74.74
2018-02-13T08:14:53.934Z,74.68
2018-02-13T08:17:24.563Z,74.46
2018-02-13T08:19:53.665Z,74.76
2018-02-13T08:22:22.655Z,74.39
2018-02-13T08:24:54.248Z,75.80
2018-02-13T08:27:24.058Z,75.37
2018-02-13T08:29:53.126Z,75.32
2018-02-13T08:32:23.448Z,75.95
2018-02-13T08:34:53.490Z,74.99
2018-02-13T08:37:22.516Z,75.76
2018-02-13T08:40:06.482Z,74.48
2018-02-13T08:42:35.587Z,74.01
2018-02-13T08:45:04.546Z,73.53
2018-02-13T08:47:34.372Z,74.50
2018-02-13T08:50:03.481Z,74.31
2018-02-13T08:52:32.512Z,74.71
2018-02-13T08:55:02.477Z,74.40
2018-02-13T08:57:31.487Z,75.14
2018-02-13T09:00:01.297Z,75.74
2018-02-13T09:02:30.421Z,75.77
2018-02-13T09:04:59.427Z,75.96
2018-02-13T09:07:28.571Z,74.07
2018-02-13T09:10:01.112Z,73.89
2018-02-13T09:12:30.061Z,74.17
2018-02-13T09:14:59.635Z,74.13
2018-02-13T09:17:28.761Z,74.17
2018-02-13T09:19:57.847Z,73.84
2018-02-13T09:22:26.853Z,73.94
2018-02-13T09:24:56.833Z,73.32
2018-02-13T09:27:25.832Z,73.21
2018-02-13T09:29:54.958Z,74.61
2018-02-13T09:32:24.192Z,74.81
2018-02-13T09:34:53.356Z,74.67
2018-02-13T09:37:22.556Z,75.04
2018-02-13T09:39:51.547Z,75.17
2018-02-13T09:42:20.545Z,75.16
2018-02-13T09:44:49.640Z,75.43
2018-02-13T09:47:18.674Z,76.90
2018-02-13T09:49:47.625Z,76.35
2018-02-13T09:52:17.036Z,76.10
2018-02-13T09:54:46.172Z,77.40
2018-02-13T09:57:15.148Z,77.66
2018-02-13T09:59:44.860Z,77.56
2018-02-13T10:02:15.065Z,77.17
2018-02-13T10:04:44.088Z,78.31
2018-02-13T10:07:13.176Z,77.64
2018-02-13T10:09:42.935Z,78.43
2018-02-13T10:12:12.972Z,78.41
2018-02-13T10:14:42.586Z,77.55
2018-02-13T10:17:11.712Z,77.76
2018-02-13T10:19:41.014Z,76.88
2018-02-13T10:22:10.908Z,75.61
2018-02-13T10:24:40.870Z,74.83
2018-02-13T10:27:10.151Z,74.71
2018-02-13T10:29:39.412Z,74.11
2018-02-13T10:32:08.508Z,74.30
2018-02-13T10:34:37.808Z,72.11
2018-02-13T10:37:06.992Z,70.99
2018-02-13T10:39:39.691Z,69.97
2018-02-13T10:42:08.852Z,68.85
2018-02-13T10:44:37.982Z,68.42
2018-02-13T10:47:06.978Z,69.15
2018-02-13T10:49:35.953Z,67.81
2018-02-13T10:52:04.971Z,67.94
2018-02-13T10:54:33.942Z,68.34
2018-02-13T10:57:02.931Z,65.88
2018-02-13T10:59:32.095Z,65.46
2018-02-13T11:02:09.252Z,65.58
2018-02-13T11:04:39.264Z,66.77
2018-02-13T11:07:08.351Z,65.79
2018-02-13T11:09:37.445Z,65.58
2018-02-13T11:12:06.507Z,66.39
2018-02-13T11:14:35.632Z,66.38
2018-02-13T11:17:07.293Z,66.13
2018-02-13T11:19:37.213Z,66.99
2018-02-13T11:22:06.207Z,65.96
2018-02-13T11:24:37.091Z,65.17
2018-02-13T11:27:06.016Z,66.25
2018-02-13T11:29:35.128Z,66.32
2018-02-13T11:32:05.591Z,66.40
2018-02-13T11:34:34.492Z,67.25
2018-02-13T11:37:04.771Z,67.22
2018-02-13T11:39:34.212Z,67.20
2018-02-13T11:42:03.273Z,67.00
2018-02-13T11:44:32.266Z,66.44
2018-02-13T11:47:02.695Z,66.99
2018-02-13T11:49:31.998Z,67.24
2018-02-13T11:52:00.986Z,67.19
2018-02-13T11:54:30.001Z,66.92
2018-02-13T11:56:59.016Z,67.04
2018-02-13T11:59:28.088Z,66.95
2018-02-13T12:01:57.173Z,68.48
2018-02-13T12:04:27.171Z,69.00
2018-02-13T12:06:59.109Z,68.39
2018-02-13T12:09:29.601Z,68.27
2018-02-13T12:11:58.636Z,67.61
2018-02-13T12:14:31.168Z,67.16
2018-02-13T12:17:01.020Z,67.06
2018-02-13T12:19:30.712Z,68.19
2018-02-13T12:21:59.692Z,69.26
2018-02-13T12:24:32.378Z,69.83
2018-02-13T12:27:02.286Z,69.30
2018-02-13T12:29:31.279Z,68.92
2018-02-13T12:32:00.250Z,68.17
2018-02-13T12:34:30.378Z,68.65
2018-02-13T12:36:59.285Z,69.20
2018-02-13T12:39:28.419Z,71.67
2018-02-13T12:42:01.158Z,71.23
2018-02-13T12:44:30.168Z,71.64
2018-02-13T12:46:59.693Z,72.42
2018-02-13T12:49:29.829Z,71.82
2018-02-13T12:51:59.716Z,70.80
2018-02-13T12:54:29.108Z,69.67
2018-02-13T12:56:59.434Z,68.51
2018-02-13T12:59:28.522Z,68.51
2018-02-13T13:01:57.833Z,67.70
2018-02-13T13:04:30.307Z,67.39
2018-02-13T13:06:59.400Z,68.29
2018-02-13T13:09:28.372Z,68.09
2018-02-13T13:11:58.917Z,68.71
2018-02-13T13:14:27.927Z,68.17
2018-02-13T13:16:56.911Z,68.34
2018-02-13T13:19:27.667Z,68.99
2018-02-13T13:21:56.747Z,67.26
2018-02-13T13:24:26.531Z,68.62
2018-02-13T13:26:57.631Z,69.06
2018-02-13T13:29:27.458Z,69.90
2018-02-13T13:31:56.714Z,70.28
2018-02-13T13:34:27.034Z,71.29
2018-02-13T13:36:56.133Z,71.70
2018-02-13T13:39:25.238Z,73.18
2018-02-13T13:41:56.179Z,72.94
2018-02-13T13:44:25.381Z,73.23
2018-02-13T13:46:54.363Z,73.65
2018-02-13T13:49:25.033Z,73.10
2018-02-13T13:51:54.895Z,73.60
2018-02-13T13:54:24.148Z,73.76
2018-02-13T13:56:54.191Z,73.86
2018-02-13T13:59:23.435Z,74.18
2018-02-13T14:01:53.592Z,74.74
2018-02-13T14:04:22.788Z,75.19
2018-02-13T14:06:51.849Z,75.60
2018-02-13T14:09:22.417Z,75.67
2018-02-13T14:11:52.705Z,76.90
2018-02-13T14:14:21.897Z,77.29
2018-02-13T14:16:52.730Z,76.87
2018-02-13T14:19:21.774Z,76.83
2018-02-13T14:21:51.366Z,77.62
2018-02-13T14:24:20.568Z,77.12
2018-02-13T14:26:54.558Z,77.79
2018-02-13T14:29:24.835Z,78.15
2018-02-13T14:31:54.787Z,78.57
2018-02-13T14:34:24.707Z,78.77
2018-02-13T14:36:53.838Z,78.50
2018-02-13T14:39:23.837Z,78.59
2018-02-13T14:41:52.928Z,77.85
2018-02-13T14:44:21.863Z,77.69
2018-02-13T14:46:52.642Z,77.60
2018-02-13T14:49:22.558Z,77.51
2018-02-13T14:51:53.085Z,77.98
2018-02-13T14:54:22.285Z,78.17
2018-02-13T14:56:53.017Z,78.52
2018-02-13T14:59:23.803Z,78.64
2018-02-13T15:01:52.852Z,78.96
2018-02-13T15:04:23.075Z,79.50
2018-02-13T15:06:55.185Z,79.44
2018-02-13T15:09:28.742Z,79.91
2018-02-13T15:11:57.816Z,80.35
2018-02-13T15:14:28.112Z,80.08
2018-02-13T15:17:01.839Z,80.18
2018-02-13T15:19:31.386Z,81.63
2018-02-13T15:22:02.161Z,82.08
2018-02-13T15:24:32.123Z,82.10
2018-02-13T15:27:14.016Z,81.76
2018-02-13T15:29:43.874Z,81.78
2018-02-13T15:32:13.253Z,82.48
2018-02-13T15:34:42.346Z,82.45
2018-02-13T15:37:24.532Z,82.54
2018-02-13T15:39:53.623Z,82.92
2018-02-13T15:42:22.813Z,83.29
2018-02-13T15:44:53.205Z,83.38
2018-02-13T15:47:26.900Z,83.74
2018-02-13T15:49:57.355Z,84.31
2018-02-13T15:52:27.198Z,84.46
2018-02-13T15:54:57.416Z,84.49
2018-02-13T15:57:27.176Z,83.71
2018-02-13T15:59:59.044Z,83.72
2018-02-13T16:02:30.591Z,83.58
2018-02-13T16:05:00.393Z,83.09
2018-02-13T16:07:29.490Z,83.68
2018-02-13T16:10:00.992Z,84.12
2018-02-13T16:12:30.002Z,83.48
2018-02-13T16:14:58.993Z,83.11
2018-02-13T16:17:29.658Z,82.79
2018-02-13T16:19:58.548Z,81.77
2018-02-13T16:22:27.512Z,81.23
2018-02-13T16:24:58.259Z,81.23
2018-02-13T16:27:27.340Z,81.95
2018-02-13T16:29:56.542Z,80.71
2018-02-13T16:32:26.531Z,79.79
2018-02-13T16:34:55.857Z,80.11
2018-02-13T16:37:25.862Z,80.38
2018-02-13T16:39:55.078Z,80.79
2018-02-13T16:42:24.285Z,81.42
2018-02-13T16:44:54.089Z,80.44
2018-02-13T16:47:23.861Z,81.25
2018-02-13T16:49:53.713Z,81.20
2018-02-13T16:52:22.817Z,81.42
2018-02-13T16:54:53.034Z,81.29
2018-02-13T16:57:22.641Z,82.48
2018-02-13T16:59:51.632Z,83.14
2018-02-13T17:02:21.431Z,83.00
2018-02-13T17:04:51.466Z,82.84
2018-02-13T17:07:20.493Z,82.90
2018-02-13T17:09:50.498Z,83.14
2018-02-13T17:12:21.214Z,83.54
2018-02-13T17:14:50.423Z,84.24
2018-02-13T17:17:19.715Z,83.81
2018-02-13T17:19:48.917Z,83.75
2018-02-13T17:22:17.972Z,84.10
2018-02-13T17:24:47.545Z,84.41
2018-02-13T17:27:16.521Z,83.97
2018-02-13T17:29:46.592Z,84.34
2018-02-13T17:32:18.861Z,84.22
2018-02-13T17:34:48.131Z,84.15
2018-02-13T17:37:19.311Z,84.37
2018-02-13T17:39:48.804Z,84.38
2018-02-13T17:42:17.822Z,84.13
2018-02-13T17:44:48.890Z,84.57
2018-02-13T17:47:17.977Z,84.95
2018-02-13T17:49:47.017Z,84.11
2018-02-13T17:52:17.051Z,83.96
2018-02-13T17:54:46.840Z,84.29
2018-02-13T17:57:15.845Z,84.31
2018-02-13T17:59:45.031Z,84.40
2018-02-13T18:02:15.532Z,84.33
2018-02-13T18:04:44.732Z,84.67
2018-02-13T18:07:15.462Z,84.65
2018-02-13T18:09:44.467Z,84.37
2018-02-13T18:12:13.962Z,84.21
2018-02-13T18:14:43.310Z,84.63
2018-02-13T18:17:13.292Z,84.30
2018-02-13T18:19:43.470Z,84.41
2018-02-13T18:22:12.645Z,84.22
2018-02-13T18:24:42.536Z,83.41
2018-02-13T18:27:12.667Z,83.64
2018-02-13T18:29:42.584Z,83.93
2018-02-13T18:32:11.960Z,83.86
2018-02-13T18:34:42.459Z,84.51
2018-02-13T18:37:13.500Z,84.36
2018-02-13T18:39:42.628Z,84.53
2018-02-13T18:42:12.597Z,84.35
2018-02-13T18:44:43.875Z,84.07
2018-02-13T18:47:13.189Z,85.08
2018-02-13T18:49:43.546Z,85.33
2018-02-13T18:54:44.468Z,85.35
2018-02-13T18:57:15.219Z,85.46
2018-02-13T18:59:44.328Z,85.07
2018-02-13T19:02:13.340Z,84.84
2018-02-13T19:04:44.158Z,84.54
2018-02-13T19:07:13.366Z,85.02
2018-02-13T19:09:43.437Z,84.70
2018-02-13T19:12:13.840Z,84.31
2018-02-13T19:14:42.846Z,86.23
2018-02-13T19:19:42.962Z,84.64
2018-02-13T19:22:11.880Z,84.58
2018-02-13T19:24:41.017Z,84.14
2018-02-13T19:27:12.019Z,84.85
2018-02-13T19:29:41.152Z,84.92
2018-02-13T19:32:10.415Z,84.08
2018-02-13T19:34:39.782Z,83.99
2018-02-13T19:37:08.855Z,85.14
2018-02-13T19:39:37.901Z,85.29
2018-02-13T19:42:07.934Z,84.62
2018-02-13T19:44:37.035Z,85.06
2018-02-13T19:47:07.263Z,84.66
2018-02-13T19:49:37.380Z,85.54
2018-02-13T19:52:06.685Z,85.49
2018-02-13T19:54:36.011Z,85.11
2018-02-13T19:57:06.258Z,85.02
2018-02-13T19:59:35.501Z,84.42
2018-02-13T20:02:05.138Z,84.21
2018-02-13T20:04:34.441Z,84.56
2018-02-13T20:07:03.654Z,84.71
2018-02-13T20:09:32.969Z,85.34
2018-02-13T20:12:02.141Z,85.61
2018-02-13T20:14:31.222Z,85.80
2018-02-13T20:17:01.646Z,85.72
2018-02-13T20:19:30.728Z,85.68
2018-02-13T20:21:59.813Z,86.97
2018-02-13T20:24:29.943Z,86.94
2018-02-13T20:26:59.167Z,85.74
2018-02-13T20:29:29.085Z,85.60
2018-02-13T20:31:58.256Z,86.20
2018-02-13T20:34:28.325Z,86.94
2018-02-13T20:36:57.366Z,86.95
2018-02-13T20:39:27.263Z,86.18
2018-02-13T20:41:58.225Z,84.63
2018-02-13T20:44:27.563Z,84.44
2018-02-13T20:46:57.167Z,84.69
2018-02-13T20:49:26.236Z,85.14
2018-02-13T20:51:55.466Z,84.50
2018-02-13T20:54:25.498Z,84.14
2018-02-13T20:56:56.184Z,84.37
2018-02-13T20:59:25.380Z,84.24
2018-02-13T21:01:54.927Z,84.52
2018-02-13T21:04:24.971Z,84.51
2018-02-13T21:06:54.800Z,84.27
2018-02-13T21:09:24.018Z,84.20
2018-02-13T21:11:59.181Z,84.64
2018-02-13T21:14:30.140Z,84.70
2018-02-13T21:17:01.919Z,84.08
2018-02-13T21:19:31.255Z,84.50
2018-02-13T21:22:00.356Z,84.97
2018-02-13T21:24:29.436Z,84.13
2018-02-13T21:26:58.980Z,84.70
2018-02-13T21:29:28.177Z,83.67
2018-02-13T21:31:57.454Z,84.42
2018-02-13T21:34:26.750Z,84.74
2018-02-13T21:36:56.001Z,84.42
2018-02-13T21:39:25.259Z,84.21
2018-02-13T21:41:54.195Z,84.12
2018-02-13T21:44:23.183Z,84.04
2018-02-13T21:46:52.382Z,83.87
2018-02-13T21:49:21.494Z,84.17
2018-02-13T21:51:51.456Z,84.13
2018-02-13T21:54:21.042Z,84.40
2018-02-13T21:56:51.131Z,84.83
2018-02-13T21:59:20.184Z,84.87
2018-02-13T22:01:52.791Z,84.77
2018-02-13T22:04:21.853Z,84.83
2018-02-13T22:06:51.907Z,84.40
2018-02-13T22:09:21.890Z,83.79
2018-02-13T22:11:53.674Z,83.70
2018-02-13T22:14:24.173Z,83.75
2018-02-13T22:16:54.397Z,84.50
2018-02-13T22:19:23.528Z,84.04
2018-02-13T22:21:54.472Z,84.05
2018-02-13T22:24:23.532Z,83.95
2018-02-13T22:26:52.522Z,84.69
2018-02-13T22:29:21.618Z,84.40
2018-02-13T22:31:50.820Z,83.92
2018-02-13T22:34:20.110Z,83.14
2018-02-13T22:36:49.322Z,83.97
2018-02-13T22:39:18.362Z,83.79
2018-02-13T22:44:45.057Z,83.61
2018-02-13T22:47:16.861Z,84.80
2018-02-13T22:49:46.138Z,86.45
2018-02-13T22:52:16.029Z,86.10
2018-02-13T22:54:47.521Z,87.38
2018-02-13T22:57:16.809Z,87.70
2018-02-13T22:59:46.146Z,88.33
2018-02-13T23:02:15.305Z,87.58
2018-02-13T23:04:45.831Z,87.82
2018-02-13T23:07:14.757Z,86.74
2018-02-13T23:09:46.100Z,86.49
2018-02-13T23:12:15.277Z,85.70
2018-02-13T23:14:44.371Z,85.20
2018-02-13T23:17:13.567Z,85.70
2018-02-13T23:19:42.875Z,86.24
2018-02-13T23:22:12.071Z,86.91
2018-02-13T23:24:41.915Z,86.87
2018-02-13T23:27:10.877Z,86.54
2018-02-13T23:29:41.687Z,86.56
2018-02-13T23:32:10.806Z,86.44
2018-02-13T23:34:40.826Z,86.62
2018-02-13T23:37:09.925Z,86.83
2018-02-13T23:39:39.423Z,86.93
2018-02-13T23:42:08.527Z,86.62
2018-02-13T23:44:37.707Z,87.07
2018-02-13T23:47:06.773Z,87.16
2018-02-13T23:49:35.917Z,87.20
2018-02-13T23:52:05.829Z,87.92
2018-02-13T23:54:35.653Z,87.59
2018-02-13T23:57:05.066Z,86.93
2018-02-13T23:59:34.419Z,87.19
